Time;durP1;ratioP1;P1;durP2;ratioP2;P2;SDS_P1;SDS_P2;PMS_P1;PMS_P2;Temp;Humidity;BMP_temperature;BMP_pressure;BME280_temperature;BME280_humidity;BME280_pressure;Samples;Min_cycle;Max_cycle;Signal;HPM_P1;HPM_P2
2023/06/30 00:00:40;;;;;;;5.63;3.40;;;20.60;59.90;;;;;;5055040;28;20028;-70
2023/06/30 00:03:06;;;;;;;7.22;3.53;;;20.60;60.10;;;;;;5054952;28;20017;-70
2023/06/30 00:05:32;;;;;;;7.05;3.28;;;20.50;60.00;;;;;;5054953;28;20036;-70
2023/06/30 00:07:58;;;;;;;8.20;3.28;;;20.50;60.00;;;;;;5055339;28;20025;-70
2023/06/30 00:10:25;;;;;;;4.75;3.13;;;20.50;60.30;;;;;;5054871;28;20104;-70
2023/06/30 00:12:51;;;;;;;4.57;3.08;;;20.50;60.30;;;;;;5055221;28;20025;-70
2023/06/30 00:15:17;;;;;;;4.03;2.97;;;20.50;60.60;;;;;;5055046;28;20033;-70
2023/06/30 00:17:43;;;;;;;5.45;3.15;;;20.50;60.60;;;;;;5054816;28;20410;-70
2023/06/30 00:20:11;;;;;;;5.47;3.30;;;20.50;60.90;;;;;;5055408;28;20052;-70
2023/06/30 00:22:37;;;;;;;5.25;3.13;;;20.40;61.20;;;;;;5055087;28;20040;-70
2023/06/30 00:25:04;;;;;;;5.90;3.70;;;20.40;61.10;;;;;;5037279;28;20358;-70
2023/06/30 00:27:30;;;;;;;5.25;3.72;;;20.50;61.30;;;;;;5054938;28;20025;-70
2023/06/30 00:29:56;;;;;;;5.70;3.33;;;20.40;61.30;;;;;;5054942;28;20124;-70
2023/06/30 00:32:23;;;;;;;5.03;3.10;;;20.40;61.40;;;;;;5054808;28;20021;-70
2023/06/30 00:34:49;;;;;;;5.00;3.33;;;20.40;61.60;;;;;;5057758;28;20455;-69
2023/06/30 00:37:15;;;;;;;5.45;3.30;;;20.40;61.50;;;;;;5058724;28;20032;-69
2023/06/30 00:39:41;;;;;;;6.20;3.42;;;20.40;61.50;;;;;;5040945;28;20087;-69
2023/06/30 00:42:08;;;;;;;3.95;3.20;;;20.40;61.50;;;;;;5058885;28;20025;-69
2023/06/30 00:44:34;;;;;;;4.82;3.30;;;20.40;61.50;;;;;;5059071;28;20044;-69
2023/06/30 00:47:00;;;;;;;3.63;3.22;;;20.40;61.70;;;;;;5059078;28;20037;-69
2023/06/30 00:49:28;;;;;;;4.43;3.20;;;20.30;61.80;;;;;;5058430;28;20037;-69
2023/06/30 00:51:55;;;;;;;4.55;3.30;;;20.20;61.90;;;;;;5058677;28;20029;-69
2023/06/30 00:54:21;;;;;;;4.70;3.15;;;20.30;62.10;;;;;;5058304;28;20061;-69
2023/06/30 00:56:47;;;;;;;6.72;3.83;;;20.30;62.10;;;;;;5058844;28;20154;-69
2023/06/30 00:59:13;;;;;;;4.97;3.28;;;20.30;62.20;;;;;;5058469;28;20143;-69
2023/06/30 01:01:47;;;;;;;5.15;3.20;;;20.20;62.40;;;;;;5058758;28;20475;-69
2023/06/30 01:04:24;;;;;;;4.03;3.22;;;20.20;62.50;;;;;;5058756;28;20038;-69
2023/06/30 01:07:19;;;;;;;4.32;3.20;;;20.10;62.70;;;;;;5058444;28;20017;-69
2023/06/30 01:10:01;;;;;;;5.78;3.22;;;20.10;63.10;;;;;;5058068;28;20052;-69
2023/06/30 01:12:27;;;;;;;6.20;3.55;;;20.00;63.10;;;;;;5040895;28;20104;-69
2023/06/30 01:14:55;;;;;;;6.88;3.92;;;20.00;63.40;;;;;;5057911;28;20222;-69
2023/06/30 01:17:24;;;;;;;4.90;3.60;;;19.90;63.10;;;;;;5057967;28;20018;-69
2023/06/30 01:19:53;;;;;;;7.18;4.47;;;19.90;63.60;;;;;;5057803;28;20029;-69
2023/06/30 01:22:27;;;;;;;8.77;4.00;;;19.90;64.00;;;;;;5058337;28;20021;-69
2023/06/30 01:24:59;;;;;;;5.18;3.42;;;19.90;63.70;;;;;;5058067;28;20461;-69
2023/06/30 01:27:25;;;;;;;6.63;3.72;;;19.90;63.80;;;;;;5057949;28;20040;-69
2023/06/30 01:29:52;;;;;;;5.70;3.42;;;19.80;63.90;;;;;;5058089;28;20045;-69
2023/06/30 01:32:19;;;;;;;5.47;3.78;;;19.80;64.00;;;;;;5057733;28;20405;-69
2023/06/30 01:34:46;;;;;;;6.72;3.40;;;19.80;64.20;;;;;;5058285;28;20037;-69
2023/06/30 01:37:14;;;;;;;8.68;4.30;;;19.80;64.20;;;;;;5057897;28;20035;-69
2023/06/30 01:39:40;;;;;;;6.43;3.75;;;19.80;64.30;;;;;;5057488;28;20465;-69
2023/06/30 01:42:07;;;;;;;4.85;3.50;;;19.70;64.50;;;;;;5058020;28;20045;-69
2023/06/30 01:44:35;;;;;;;6.07;4.25;;;19.70;64.50;;;;;;5057240;28;20025;-69
2023/06/30 01:47:02;;;;;;;7.07;4.30;;;19.70;64.50;;;;;;5057166;28;20443;-69
2023/06/30 01:49:29;;;;;;;6.43;3.30;;;19.70;64.80;;;;;;5057283;28;20036;-69
2023/06/30 01:51:55;;;;;;;6.35;3.75;;;19.60;64.60;;;;;;5057527;28;20029;-69
2023/06/30 01:54:21;;;;;;;8.88;4.43;;;19.60;64.90;;;;;;5057426;28;20399;-69
2023/06/30 01:56:51;;;;;;;7.32;4.22;;;19.60;65.90;;;;;;5057208;28;20031;-69
2023/06/30 01:59:17;;;;;;;7.25;3.72;;;19.50;65.60;;;;;;5040574;28;20043;-69
2023/06/30 02:01:43;;;;;;;7.50;4.20;;;19.50;65.40;;;;;;5039601;28;20021;-69
2023/06/30 02:04:09;;;;;;;10.52;4.75;;;19.40;65.70;;;;;;5057070;28;20407;-69
2023/06/30 02:06:36;;;;;;;7.68;5.43;;;19.40;65.60;;;;;;5056996;28;20374;-69
2023/06/30 02:09:02;;;;;;;5.10;3.97;;;19.40;66.20;;;;;;5057130;28;20118;-69
2023/06/30 02:11:28;;;;;;;7.07;4.72;;;19.40;65.80;;;;;;5056885;28;20032;-69
2023/06/30 02:13:54;;;;;;;5.72;4.10;;;19.40;65.70;;;;;;5057159;28;20033;-69
2023/06/30 02:16:20;;;;;;;5.50;3.92;;;19.40;65.70;;;;;;5039550;28;20362;-69
2023/06/30 02:18:46;;;;;;;4.53;3.78;;;19.40;65.90;;;;;;5057229;28;20042;-69
2023/06/30 02:21:12;;;;;;;6.68;3.90;;;19.40;66.00;;;;;;5057315;28;20032;-69
2023/06/30 02:23:38;;;;;;;7.25;3.90;;;19.40;66.00;;;;;;5056731;28;20403;-69
2023/06/30 02:26:04;;;;;;;7.68;4.88;;;19.40;66.00;;;;;;5039226;28;20069;-69
2023/06/30 02:28:30;;;;;;;8.82;4.57;;;19.40;65.80;;;;;;5056811;28;20024;-69
2023/06/30 02:30:56;;;;;;;12.77;5.00;;;19.40;66.00;;;;;;5056526;28;20052;-69
2023/06/30 02:33:23;;;;;;;8.30;4.72;;;19.30;66.10;;;;;;5056809;28;20032;-69
2023/06/30 02:35:50;;;;;;;7.68;4.53;;;19.30;66.20;;;;;;5056337;28;20502;-69
2023/06/30 02:38:16;;;;;;;9.85;4.70;;;19.40;66.30;;;;;;5056553;28;20347;-69
2023/06/30 02:40:42;;;;;;;7.15;4.25;;;19.30;66.40;;;;;;5056875;28;20487;-69
2023/06/30 02:43:08;;;;;;;7.80;4.38;;;19.30;66.50;;;;;;5056354;28;20336;-69
2023/06/30 02:45:34;;;;;;;8.20;4.78;;;19.20;66.50;;;;;;5056522;28;20075;-69
2023/06/30 02:48:00;;;;;;;9.55;4.40;;;19.20;66.60;;;;;;5056660;28;20079;-69
2023/06/30 02:50:30;;;;;;;11.25;5.18;;;19.20;66.50;;;;;;5056168;28;20029;-69
2023/06/30 02:53:00;;;;;;;8.27;4.78;;;19.30;66.60;;;;;;5056651;28;20113;-69
2023/06/30 02:55:27;;;;;;;7.47;4.50;;;19.20;66.70;;;;;;5056008;28;20537;-69
2023/06/30 02:57:53;;;;;;;13.95;5.13;;;19.30;66.70;;;;;;5055996;28;20027;-69
2023/06/30 03:00:20;;;;;;;8.70;4.55;;;19.20;66.80;;;;;;5055972;28;20028;-69
2023/06/30 03:02:46;;;;;;;9.48;4.50;;;19.20;66.90;;;;;;5055935;28;20028;-69
2023/06/30 03:05:12;;;;;;;10.38;4.75;;;19.20;66.70;;;;;;5056180;28;20028;-69
2023/06/30 03:07:38;;;;;;;9.38;4.40;;;19.20;66.90;;;;;;5055758;28;20035;-69
2023/06/30 03:10:04;;;;;;;7.47;3.88;;;19.20;66.90;;;;;;5056329;28;20025;-69
2023/06/30 03:12:30;;;;;;;9.73;4.93;;;19.10;66.90;;;;;;5055715;28;20070;-69
2023/06/30 03:14:56;;;;;;;7.05;4.05;;;19.20;67.00;;;;;;5055918;28;20025;-69
2023/06/30 03:17:22;;;;;;;8.15;4.30;;;19.20;67.00;;;;;;5055727;28;20032;-68
2023/06/30 03:19:48;;;;;;;10.20;4.60;;;19.10;67.20;;;;;;5055534;28;20029;-68
2023/06/30 03:22:14;;;;;;;6.28;4.40;;;19.20;67.20;;;;;;5056133;28;20025;-69
2023/06/30 03:24:40;;;;;;;9.65;4.63;;;19.10;67.40;;;;;;5055555;28;20029;-69
2023/06/30 03:27:06;;;;;;;7.68;4.40;;;19.10;67.40;;;;;;5056024;28;20123;-69
2023/06/30 03:29:32;;;;;;;8.18;4.00;;;19.10;67.50;;;;;;5055229;28;20061;-69
2023/06/30 03:31:58;;;;;;;6.53;4.20;;;19.10;67.40;;;;;;5055728;28;20446;-69
2023/06/30 03:34:24;;;;;;;7.40;4.40;;;19.00;67.50;;;;;;5055338;28;20043;-69
2023/06/30 03:36:50;;;;;;;10.07;4.90;;;19.10;67.60;;;;;;5055398;28;20021;-71
2023/06/30 03:39:16;;;;;;;12.23;5.15;;;19.10;67.70;;;;;;5055324;28;20021;-69
2023/06/30 03:41:42;;;;;;;7.63;4.85;;;19.00;67.90;;;;;;5055337;28;20350;-70
2023/06/30 03:44:11;;;;;;;17.70;5.10;;;19.10;67.80;;;;;;5055492;28;20021;-69
2023/06/30 03:46:37;;;;;;;11.65;4.30;;;19.10;67.90;;;;;;5055233;28;20074;-69
2023/06/30 03:49:03;;;;;;;12.05;4.90;;;19.10;67.70;;;;;;5055084;28;20025;-68
2023/06/30 03:51:29;;;;;;;11.75;4.75;;;19.10;67.60;;;;;;5055191;28;20124;-69
2023/06/30 03:53:55;;;;;;;15.30;5.43;;;19.30;67.60;;;;;;5055114;28;20025;-69
2023/06/30 03:56:21;;;;;;;15.75;6.10;;;19.30;67.60;;;;;;5055590;28;20103;-69
2023/06/30 03:58:47;;;;;;;9.90;5.55;;;19.40;67.40;;;;;;5055256;28;20029;-70
2023/06/30 04:01:13;;;;;;;8.63;4.90;;;19.50;67.50;;;;;;5037817;28;20324;-69
2023/06/30 04:03:39;;;;;;;8.05;4.40;;;19.50;67.10;;;;;;5055252;28;20028;-69
2023/06/30 04:06:05;;;;;;;9.10;4.63;;;19.60;67.00;;;;;;5038192;28;20064;-69
2023/06/30 04:08:31;;;;;;;7.78;4.63;;;19.70;66.90;;;;;;5054533;28;20351;-69
2023/06/30 04:10:57;;;;;;;8.85;5.05;;;19.80;66.80;;;;;;5054976;28;20124;-69
2023/06/30 04:13:23;;;;;;;8.57;5.20;;;19.90;66.60;;;;;;5055488;28;20414;-69
2023/06/30 04:15:49;;;;;;;8.73;4.68;;;20.00;66.40;;;;;;5055413;28;20033;-69
2023/06/30 04:18:15;;;;;;;7.00;4.57;;;20.10;66.10;;;;;;5054812;28;20025;-69
2023/06/30 04:20:41;;;;;;;6.72;4.63;;;20.20;65.80;;;;;;5055401;28;20044;-69
2023/06/30 04:23:07;;;;;;;8.15;4.70;;;20.40;65.60;;;;;;5055130;28;20132;-69
2023/06/30 04:25:33;;;;;;;5.85;4.60;;;20.60;65.40;;;;;;5054863;28;20514;-69
2023/06/30 04:27:59;;;;;;;6.70;4.30;;;20.70;65.20;;;;;;5055263;28;20120;-69
2023/06/30 04:30:25;;;;;;;6.35;4.30;;;20.80;64.90;;;;;;5054895;28;20077;-69
2023/06/30 04:32:52;;;;;;;6.68;3.90;;;20.90;64.70;;;;;;5055273;28;20481;-69
2023/06/30 04:35:18;;;;;;;7.18;4.40;;;20.90;64.50;;;;;;5054677;28;20067;-69
2023/06/30 04:37:44;;;;;;;6.50;4.53;;;21.00;64.30;;;;;;5054662;28;20025;-70
2023/06/30 04:40:10;;;;;;;7.57;4.32;;;21.10;64.30;;;;;;5037556;28;20100;-70
2023/06/30 04:42:39;;;;;;;8.70;5.90;;;21.10;64.20;;;;;;5037075;28;20021;-70
2023/06/30 04:45:05;;;;;;;10.43;5.43;;;21.20;63.90;;;;;;5054930;28;20025;-70
2023/06/30 04:47:32;;;;;;;8.23;5.28;;;21.30;63.70;;;;;;5037746;28;20029;-70
2023/06/30 04:49:58;;;;;;;10.48;5.20;;;21.40;63.70;;;;;;5055136;28;20462;-70
2023/06/30 04:52:24;;;;;;;6.85;4.75;;;21.50;63.70;;;;;;5054594;28;20033;-70
2023/06/30 04:54:50;;;;;;;8.75;4.82;;;21.60;63.60;;;;;;5055010;28;20024;-70
2023/06/30 04:57:16;;;;;;;10.85;6.47;;;21.80;63.40;;;;;;5054548;28;20037;-70
2023/06/30 04:59:42;;;;;;;10.30;6.03;;;21.90;62.80;;;;;;5054468;28;20510;-70
2023/06/30 05:02:08;;;;;;;11.38;5.82;;;21.90;62.30;;;;;;5054775;28;20032;-69
2023/06/30 05:04:34;;;;;;;9.52;4.93;;;21.90;62.30;;;;;;5055031;28;20032;-70
2023/06/30 05:07:00;;;;;;;9.70;6.13;;;21.90;62.30;;;;;;5054493;28;20359;-70
2023/06/30 05:09:26;;;;;;;6.88;5.43;;;21.90;62.30;;;;;;5054478;28;20033;-70
2023/06/30 05:11:52;;;;;;;7.03;5.03;;;21.90;62.30;;;;;;5054420;28;20402;-70
2023/06/30 05:14:18;;;;;;;7.72;4.97;;;21.90;62.20;;;;;;5054367;28;20032;-70
2023/06/30 05:16:44;;;;;;;10.70;6.05;;;21.90;62.30;;;;;;5054944;28;20032;-69
2023/06/30 05:19:10;;;;;;;7.55;5.75;;;21.90;62.60;;;;;;5054855;28;20026;-70
2023/06/30 05:21:36;;;;;;;9.55;6.72;;;21.80;62.70;;;;;;5057303;28;20108;-70
2023/06/30 05:24:02;;;;;;;8.27;5.88;;;21.90;62.70;;;;;;5058124;28;20020;-69
2023/06/30 05:26:28;;;;;;;7.85;5.38;;;21.80;62.80;;;;;;5057824;28;20438;-70
2023/06/30 05:28:54;;;;;;;8.85;5.95;;;21.80;62.80;;;;;;5057994;28;20040;-70
2023/06/30 05:31:21;;;;;;;9.18;6.55;;;21.70;62.60;;;;;;5057557;28;20048;-70
2023/06/30 05:33:46;;;;;;;8.65;5.55;;;21.70;62.80;;;;;;5058179;28;20107;-67
2023/06/30 05:36:13;;;;;;;8.25;5.50;;;21.70;62.80;;;;;;5058128;28;20107;-68
2023/06/30 05:38:39;;;;;;;11.00;5.75;;;21.70;63.00;;;;;;5057429;28;20033;-67
2023/06/30 05:41:05;;;;;;;7.13;5.40;;;21.80;63.00;;;;;;5057472;28;20028;-69
2023/06/30 05:43:31;;;;;;;9.82;5.43;;;21.90;62.80;;;;;;5057359;28;20028;-69
2023/06/30 05:45:58;;;;;;;7.18;5.53;;;21.90;62.70;;;;;;5057676;28;20106;-69
2023/06/30 05:48:24;;;;;;;7.38;5.45;;;22.00;62.60;;;;;;5056908;28;20029;-68
2023/06/30 05:50:50;;;;;;;8.38;5.38;;;22.10;62.40;;;;;;5051590;28;20051;-67
2023/06/30 05:53:16;;;;;;;11.77;6.30;;;22.20;62.40;;;;;;5040295;28;20116;-67
2023/06/30 05:55:42;;;;;;;9.82;5.00;;;22.20;62.40;;;;;;5057139;28;20029;-65
2023/06/30 05:58:08;;;;;;;9.77;5.55;;;22.20;62.30;;;;;;5057398;28;20020;-66
2023/06/30 06:00:34;;;;;;;11.05;5.90;;;22.30;62.10;;;;;;5057646;28;20055;-64
2023/06/30 06:03:01;;;;;;;13.20;5.40;;;22.40;61.90;;;;;;5039551;28;20040;-66
2023/06/30 06:05:27;;;;;;;9.25;5.68;;;22.50;61.70;;;;;;5053814;28;20493;-66
2023/06/30 06:07:53;;;;;;;9.07;5.38;;;22.70;61.50;;;;;;5037053;28;20100;-65
2023/06/30 06:10:19;;;;;;;12.18;5.55;;;23.00;61.00;;;;;;5038172;28;20455;-65
2023/06/30 06:12:45;;;;;;;9.50;5.30;;;23.40;60.30;;;;;;5046756;28;20068;-68
2023/06/30 06:15:12;;;;;;;9.18;5.97;;;23.70;59.60;;;;;;5045488;28;20461;-66
2023/06/30 06:17:38;;;;;;;10.98;6.38;;;24.00;58.90;;;;;;5036818;28;20021;-67
2023/06/30 06:20:05;;;;;;;7.90;5.28;;;24.20;58.20;;;;;;5037096;28;20040;-68
2023/06/30 06:22:31;;;;;;;8.63;5.43;;;24.40;57.50;;;;;;5037231;28;20027;-68
2023/06/30 06:24:57;;;;;;;7.32;5.35;;;24.50;56.40;;;;;;5037085;28;20030;-68
2023/06/30 06:27:23;;;;;;;8.93;5.40;;;24.60;56.00;;;;;;5037042;28;20152;-68
2023/06/30 06:29:50;;;;;;;7.13;4.63;;;24.70;55.80;;;;;;5035203;28;20199;-68
2023/06/30 06:32:18;;;;;;;9.32;4.90;;;25.60;55.00;;;;;;5036695;28;20071;-69
2023/06/30 06:34:46;;;;;;;6.57;4.50;;;27.40;51.80;;;;;;5038180;28;20044;-68
2023/06/30 06:37:12;;;;;;;8.07;4.80;;;29.30;47.90;;;;;;5055772;28;20025;-68
2023/06/30 06:39:38;;;;;;;7.25;3.95;;;30.90;44.80;;;;;;5054882;28;20025;-68
2023/06/30 06:42:04;;;;;;;8.25;4.32;;;32.40;42.00;;;;;;5056394;28;20013;-68
2023/06/30 06:44:30;;;;;;;6.95;4.63;;;33.50;39.80;;;;;;5056131;28;20036;-68
2023/06/30 06:47:33;;;;;;;6.10;3.95;;;33.90;38.30;;;;;;5056229;28;20021;-68
2023/06/30 06:50:00;;;;;;;5.72;4.40;;;33.90;38.60;;;;;;5056755;28;20029;-68
2023/06/30 06:52:26;;;;;;;6.97;4.22;;;33.50;38.40;;;;;;5056153;28;20025;-67
2023/06/30 06:54:52;;;;;;;6.47;3.83;;;33.00;38.80;;;;;;5056286;28;20025;-68
2023/06/30 06:57:18;;;;;;;7.28;3.85;;;32.40;39.50;;;;;;5056107;28;20028;-68
2023/06/30 06:59:44;;;;;;;6.72;3.78;;;32.00;40.40;;;;;;5055993;28;20039;-68
2023/06/30 07:02:11;;;;;;;4.95;3.42;;;31.70;40.90;;;;;;5056603;28;20347;-68
2023/06/30 07:04:37;;;;;;;4.20;3.30;;;31.40;41.50;;;;;;5057370;28;20025;-67
2023/06/30 07:07:03;;;;;;;9.02;3.97;;;31.20;41.80;;;;;;5057706;28;20032;-67
2023/06/30 07:09:29;;;;;;;7.50;3.70;;;31.00;42.10;;;;;;5058034;28;20033;-68
2023/06/30 07:11:55;;;;;;;6.57;3.97;;;30.70;42.10;;;;;;5055843;28;20542;-68
2023/06/30 07:14:22;;;;;;;3.65;3.08;;;30.40;42.10;;;;;;5055911;28;20150;-68
2023/06/30 07:16:49;;;;;;;8.68;3.20;;;30.10;42.20;;;;;;5055743;28;20049;-68
2023/06/30 07:19:15;;;;;;;6.50;3.50;;;29.90;42.80;;;;;;5055666;28;20107;-68
2023/06/30 07:21:41;;;;;;;5.22;3.20;;;30.00;42.80;;;;;;5055880;28;20095;-68
2023/06/30 07:24:07;;;;;;;6.78;3.60;;;29.90;42.80;;;;;;5055868;28;20036;-68
2023/06/30 07:26:33;;;;;;;5.53;3.10;;;30.00;42.90;;;;;;5055538;28;20074;-68
2023/06/30 07:28:59;;;;;;;5.97;4.30;;;29.90;43.10;;;;;;5055574;28;20028;-68
2023/06/30 07:31:25;;;;;;;6.07;3.70;;;29.80;43.10;;;;;;5055354;28;20057;-68
2023/06/30 07:33:52;;;;;;;6.95;4.50;;;29.70;43.20;;;;;;5055998;28;20100;-68
2023/06/30 07:36:18;;;;;;;7.93;4.50;;;29.50;43.50;;;;;;5056135;28;20391;-68
2023/06/30 07:38:43;;;;;;;8.85;5.63;;;29.30;43.70;;;;;;5055472;28;20160;-68
2023/06/30 07:41:10;;;;;;;7.50;4.57;;;29.20;44.00;;;;;;5055342;28;20431;-68
2023/06/30 07:43:36;;;;;;;5.15;3.63;;;28.90;44.10;;;;;;5055210;28;20028;-68
2023/06/30 07:46:02;;;;;;;7.10;4.22;;;28.80;44.50;;;;;;5055569;28;20100;-68
2023/06/30 07:48:27;;;;;;;8.60;4.80;;;28.60;44.80;;;;;;5055187;28;20426;-68
2023/06/30 07:50:53;;;;;;;5.85;4.07;;;28.40;45.20;;;;;;5055487;28;20025;-68
2023/06/30 07:53:21;;;;;;;5.28;3.65;;;28.30;45.50;;;;;;5055466;28;20079;-68
2023/06/30 07:55:47;;;;;;;5.68;4.00;;;28.20;45.80;;;;;;5055372;28;20025;-68
2023/06/30 07:58:13;;;;;;;9.57;4.18;;;28.10;46.00;;;;;;5055230;28;20075;-68
2023/06/30 08:00:39;;;;;;;4.50;3.63;;;27.90;46.20;;;;;;5055138;28;20028;-67
2023/06/30 08:03:05;;;;;;;7.93;4.60;;;27.90;46.40;;;;;;5055346;28;20025;-68
2023/06/30 08:05:32;;;;;;;7.47;4.20;;;27.90;46.50;;;;;;5055551;28;20104;-68
2023/06/30 08:07:58;;;;;;;6.30;3.90;;;27.80;46.50;;;;;;5055413;28;20100;-67
2023/06/30 08:10:24;;;;;;;5.50;3.55;;;27.80;46.60;;;;;;5055002;28;20107;-68
2023/06/30 08:12:50;;;;;;;7.00;3.67;;;27.90;46.50;;;;;;5055244;28;20028;-68
2023/06/30 08:15:16;;;;;;;5.95;3.78;;;28.00;46.20;;;;;;5055404;28;20039;-68
2023/06/30 08:17:42;;;;;;;6.20;3.30;;;28.10;46.20;;;;;;5054895;28;20021;-68
2023/06/30 08:20:09;;;;;;;5.57;3.47;;;28.20;46.00;;;;;;5054891;28;20317;-68
2023/06/30 08:22:35;;;;;;;7.78;3.83;;;28.30;45.60;;;;;;5054948;28;20020;-68
2023/06/30 08:25:01;;;;;;;6.10;3.67;;;28.20;45.50;;;;;;5054878;28;20043;-68
2023/06/30 08:27:28;;;;;;;8.90;3.65;;;28.30;45.60;;;;;;5055267;28;20100;-68
2023/06/30 08:29:54;;;;;;;4.00;3.05;;;28.40;45.60;;;;;;5028208;28;20053;-68
2023/06/30 08:32:21;;;;;;;5.65;3.58;;;28.40;45.50;;;;;;5014228;28;20022;-68
2023/06/30 08:34:47;;;;;;;4.55;3.30;;;28.50;45.40;;;;;;5015095;28;20025;-68
2023/06/30 08:37:13;;;;;;;6.10;3.53;;;28.50;45.40;;;;;;5015154;28;20076;-68
2023/06/30 08:39:39;;;;;;;5.95;2.80;;;28.70;45.20;;;;;;5015099;28;20057;-68
2023/06/30 08:42:06;;;;;;;6.35;3.50;;;28.80;45.00;;;;;;5015078;28;20022;-68
2023/06/30 08:44:36;;;;;;;3.92;3.03;;;28.90;44.50;;;;;;5015063;28;20034;-67
2023/06/30 08:47:04;;;;;;;11.02;6.78;;;29.00;44.20;;;;;;5015046;28;20025;-68
2023/06/30 08:49:31;;;;;;;8.77;4.93;;;29.00;44.10;;;;;;5015154;28;20026;-68
2023/06/30 08:51:57;;;;;;;7.13;5.10;;;28.90;44.20;;;;;;5015015;28;20022;-68
2023/06/30 08:54:24;;;;;;;9.10;5.03;;;28.90;44.20;;;;;;5015681;28;20025;-68
2023/06/30 08:56:50;;;;;;;6.72;3.50;;;28.90;44.20;;;;;;5018158;28;20025;-68
2023/06/30 08:59:16;;;;;;;8.40;3.70;;;28.90;44.20;;;;;;5018588;28;20033;-68
2023/06/30 09:01:45;;;;;;;6.13;3.63;;;29.00;44.20;;;;;;5018668;28;20028;-68
2023/06/30 09:04:12;;;;;;;8.35;4.28;;;29.20;44.10;;;;;;5018554;28;20025;-68
2023/06/30 09:06:47;;;;;;;6.43;3.75;;;29.20;43.80;;;;;;5019048;28;20084;-68
2023/06/30 09:09:22;;;;;;;6.07;3.33;;;29.20;43.90;;;;;;5018432;28;20036;-68
2023/06/30 09:11:50;;;;;;;8.52;4.43;;;29.20;43.70;;;;;;5018649;28;20105;-68
2023/06/30 09:14:17;;;;;;;6.18;3.70;;;29.10;43.80;;;;;;5017602;28;20448;-69
2023/06/30 09:16:43;;;;;;;6.85;3.60;;;29.10;43.90;;;;;;5018284;28;20506;-68
2023/06/30 09:19:09;;;;;;;5.75;3.92;;;29.10;43.80;;;;;;5017407;28;20029;-69
2023/06/30 09:21:38;;;;;;;8.23;4.00;;;29.00;43.80;;;;;;5016028;28;20341;-69
2023/06/30 09:24:04;;;;;;;6.40;4.22;;;28.90;44.00;;;;;;5018193;28;20452;-68
2023/06/30 09:26:31;;;;;;;7.05;4.78;;;28.90;44.00;;;;;;5018682;28;20033;-67
2023/06/30 09:28:56;;;;;;;5.78;4.20;;;28.90;44.20;;;;;;5018052;28;20038;-68
2023/06/30 09:31:30;;;;;;;6.80;4.13;;;28.90;44.50;;;;;;5017100;28;20054;-68
2023/06/30 09:34:10;;;;;;;6.47;3.35;;;28.80;44.60;;;;;;5018035;28;20045;-68
2023/06/30 09:36:37;;;;;;;7.18;4.18;;;28.80;44.60;;;;;;5017872;28;20208;-68
2023/06/30 09:39:08;;;;;;;6.55;3.33;;;29.00;44.30;;;;;;5016919;28;20030;-68
2023/06/30 09:41:34;;;;;;;7.32;3.70;;;29.00;44.10;;;;;;5017947;28;20034;-68
2023/06/30 09:44:01;;;;;;;5.35;3.92;;;29.20;43.90;;;;;;5017652;28;20034;-68
2023/06/30 09:46:28;;;;;;;5.32;3.47;;;29.40;43.60;;;;;;5017686;28;20022;-68
2023/06/30 09:48:55;;;;;;;6.68;3.67;;;29.40;43.20;;;;;;5017848;28;20022;-68
2023/06/30 09:51:22;;;;;;;5.28;3.47;;;29.60;43.00;;;;;;5017595;28;20033;-68
2023/06/30 09:53:53;;;;;;;8.25;3.47;;;29.70;42.80;;;;;;5017610;28;20026;-68
2023/06/30 09:56:21;;;;;;;5.95;3.30;;;29.70;42.20;;;;;;5017415;28;20440;-68
2023/06/30 09:58:48;;;;;;;4.28;3.28;;;29.80;42.10;;;;;;5016790;28;20025;-68
2023/06/30 10:01:23;;;;;;;4.88;3.63;;;29.90;41.60;;;;;;5017458;28;20084;-68
2023/06/30 10:03:50;;;;;;;6.75;4.88;;;29.90;41.20;;;;;;5017914;28;20464;-68
2023/06/30 10:06:20;;;;;;;6.97;4.95;;;29.90;41.30;;;;;;5016693;28;20363;-68
2023/06/30 10:08:48;;;;;;;5.10;4.20;;;30.00;41.10;;;;;;5016599;28;20026;-68
2023/06/30 10:11:15;;;;;;;6.75;3.80;;;30.20;41.00;;;;;;5017275;28;20021;-68
2023/06/30 10:13:47;;;;;;;7.65;3.85;;;30.20;40.10;;;;;;5017253;28;20121;-68
2023/06/30 10:16:15;;;;;;;8.52;4.20;;;30.20;39.80;;;;;;5017115;28;20034;-68
2023/06/30 10:18:45;;;;;;;5.32;3.28;;;30.20;39.10;;;;;;5017323;28;20340;-68
2023/06/30 10:21:12;;;;;;;6.35;3.42;;;30.10;39.50;;;;;;5016482;28;20033;-68
2023/06/30 10:23:41;;;;;;;5.38;3.17;;;30.00;39.30;;;;;;5017053;28;20072;-68
2023/06/30 10:26:09;;;;;;;5.65;3.00;;;30.00;39.20;;;;;;5016934;28;20029;-67
2023/06/30 10:28:35;;;;;;;6.88;3.10;;;30.00;38.50;;;;;;5017175;28;20470;-67
2023/06/30 10:31:02;;;;;;;4.32;2.92;;;30.00;38.40;;;;;;5046347;28;20044;-68
2023/06/30 10:33:28;;;;;;;3.75;2.80;;;30.00;38.30;;;;;;5057073;28;20025;-67
2023/06/30 10:35:57;;;;;;;4.07;2.60;;;30.00;38.40;;;;;;5056455;28;20033;-67
2023/06/30 10:38:24;;;;;;;5.70;2.70;;;30.00;38.10;;;;;;5056373;28;20103;-68
2023/06/30 10:41:11;;;;;;;4.93;2.70;;;30.00;37.90;;;;;;5056400;28;20040;-68
2023/06/30 10:44:02;;;;;;;5.90;2.90;;;29.90;34.60;;;;;;5056318;28;20087;-68
2023/06/30 10:46:51;;;;;;;3.97;2.72;;;29.90;37.40;;;;;;5056546;28;20436;-68
2023/06/30 10:49:27;;;;;;;3.08;2.70;;;29.90;37.30;;;;;;5056478;28;20021;-68
2023/06/30 10:51:55;;;;;;;3.42;2.70;;;29.90;37.30;;;;;;5056564;28;20103;-68
2023/06/30 10:54:26;;;;;;;2.90;2.40;;;29.90;37.10;;;;;;5056475;28;20051;-68
2023/06/30 10:57:16;;;;;;;5.00;2.60;;;29.90;36.90;;;;;;5056167;28;20024;-68
2023/06/30 10:59:44;;;;;;;3.55;2.50;;;30.00;36.80;;;;;;5056078;28;20059;-68
2023/06/30 11:02:21;;;;;;;4.03;2.60;;;29.90;36.10;;;;;;5056294;28;20028;-68
2023/06/30 11:04:49;;;;;;;4.97;2.25;;;29.80;36.60;;;;;;5056732;28;20060;-68
2023/06/30 11:07:26;;;;;;;3.60;2.17;;;29.70;36.80;;;;;;5055856;28;20100;-68
2023/06/30 11:09:52;;;;;;;3.20;2.42;;;29.80;36.30;;;;;;5039033;28;20028;-68
2023/06/30 11:12:26;;;;;;;2.90;2.40;;;29.70;36.30;;;;;;5056109;28;20025;-68
2023/06/30 11:14:56;;;;;;;2.67;2.35;;;29.70;36.30;;;;;;5056046;28;20029;-68
2023/06/30 11:17:23;;;;;;;4.93;3.05;;;29.60;36.10;;;;;;5055703;28;20021;-68
2023/06/30 11:20:12;;;;;;;3.85;2.60;;;29.50;36.30;;;;;;5055281;28;20071;-68
2023/06/30 11:22:39;;;;;;;2.55;2.10;;;29.40;36.20;;;;;;5038053;28;20021;-68
2023/06/30 11:25:13;;;;;;;4.93;2.88;;;29.30;36.60;;;;;;5055624;28;20554;-68
2023/06/30 11:27:40;;;;;;;3.67;2.20;;;29.20;36.70;;;;;;5055805;28;20040;-68
2023/06/30 11:30:07;;;;;;;6.97;2.30;;;29.20;36.70;;;;;;5037963;28;20489;-68
2023/06/30 11:32:38;;;;;;;2.83;2.20;;;29.00;36.80;;;;;;5055265;28;20053;-68
2023/06/30 11:35:09;;;;;;;4.32;2.53;;;28.90;37.20;;;;;;5055966;28;20043;-68
2023/06/30 11:37:36;;;;;;;2.85;2.42;;;28.70;37.40;;;;;;5055659;28;20025;-68
2023/06/30 11:40:04;;;;;;;3.75;2.40;;;28.60;37.70;;;;;;5055365;28;20566;-68
2023/06/30 11:42:32;;;;;;;4.07;2.47;;;28.50;37.90;;;;;;5055304;28;20299;-68
2023/06/30 11:44:58;;;;;;;4.70;2.58;;;28.50;38.10;;;;;;5055226;28;20358;-68
2023/06/30 11:47:24;;;;;;;2.70;1.95;;;28.40;38.10;;;;;;5055789;28;20033;-68
2023/06/30 11:49:51;;;;;;;3.63;2.20;;;28.30;38.40;;;;;;5055172;28;20016;-68
2023/06/30 11:52:18;;;;;;;2.55;2.08;;;28.10;38.70;;;;;;5055472;28;20097;-68
2023/06/30 11:54:44;;;;;;;3.80;2.30;;;28.10;39.00;;;;;;5055154;28;20036;-68
2023/06/30 11:57:11;;;;;;;3.90;2.20;;;28.00;39.50;;;;;;5055143;28;20017;-70
2023/06/30 11:59:38;;;;;;;6.93;2.35;;;28.00;39.90;;;;;;5055063;28;20021;-68
2023/06/30 12:02:04;;;;;;;3.97;2.20;;;28.00;40.70;;;;;;5055055;28;20025;-68
2023/06/30 12:04:35;;;;;;;2.33;1.88;;;28.00;40.90;;;;;;5055058;28;20029;-68
2023/06/30 12:07:05;;;;;;;4.03;2.30;;;27.90;41.00;;;;;;5055265;28;20021;-68
2023/06/30 12:09:35;;;;;;;2.92;2.13;;;27.90;41.00;;;;;;5054889;28;20104;-68
2023/06/30 12:12:01;;;;;;;2.50;2.10;;;27.90;41.10;;;;;;5054932;28;20048;-68
2023/06/30 12:14:28;;;;;;;4.07;2.42;;;27.90;41.60;;;;;;5054900;28;20060;-68
2023/06/30 12:16:54;;;;;;;4.50;2.30;;;27.90;42.00;;;;;;5054951;28;20013;-68
2023/06/30 12:19:29;;;;;;;3.05;2.13;;;27.80;42.20;;;;;;5054844;28;20028;-68
2023/06/30 12:22:03;;;;;;;5.70;2.78;;;27.80;42.30;;;;;;5054919;28;20035;-68
2023/06/30 12:24:33;;;;;;;5.15;3.13;;;27.70;42.40;;;;;;5055416;28;20020;-68
2023/06/30 12:27:03;;;;;;;4.43;2.70;;;27.70;42.40;;;;;;5037322;28;20025;-68
2023/06/30 12:29:31;;;;;;;5.57;2.70;;;27.60;42.30;;;;;;5055346;28;20036;-68
2023/06/30 12:31:58;;;;;;;5.28;2.90;;;27.60;42.40;;;;;;5042330;28;20025;-68
2023/06/30 12:34:36;;;;;;;5.47;2.70;;;27.50;42.30;;;;;;5058781;28;20036;-68
2023/06/30 12:37:03;;;;;;;5.75;2.72;;;27.40;42.00;;;;;;5059096;28;20044;-68
2023/06/30 12:39:29;;;;;;;4.07;2.70;;;27.40;42.20;;;;;;5058683;28;20025;-68
2023/06/30 12:41:56;;;;;;;4.90;2.47;;;27.40;42.20;;;;;;5058792;28;20044;-68
2023/06/30 12:44:22;;;;;;;3.58;2.70;;;27.40;42.20;;;;;;5058704;28;20104;-68
2023/06/30 12:47:02;;;;;;;4.43;2.72;;;27.40;42.50;;;;;;5058685;28;20100;-68